createdAt,value
2022-11-19T00:00:33.310Z,7.10
2022-11-19T00:01:34.601Z,5.57
2022-11-19T00:02:36.091Z,6.40
2022-11-19T00:03:38.391Z,6.53
2022-11-19T00:04:39.760Z,5.30
2022-11-19T00:05:41.499Z,6.90
2022-11-19T00:06:42.805Z,6.73
2022-11-19T00:07:44.128Z,5.53
2022-11-19T00:08:45.973Z,6.23
2022-11-19T00:09:47.478Z,8.43
2022-11-19T00:10:48.787Z,8.13
2022-11-19T00:12:09.059Z,6.70
2022-11-19T00:13:10.651Z,7.23
2022-11-19T00:14:13.064Z,6.23
2022-11-19T00:15:14.562Z,5.97
2022-11-19T00:16:15.948Z,8.63
2022-11-19T00:17:17.245Z,6.50
2022-11-19T00:18:18.585Z,6.73
2022-11-19T00:19:20.232Z,5.97
2022-11-19T00:20:22.012Z,7.87
2022-11-19T00:21:23.461Z,6.53
2022-11-19T00:22:24.767Z,7.03
2022-11-19T00:23:26.072Z,7.03
2022-11-19T00:24:27.968Z,6.87
2022-11-19T00:25:30.111Z,8.83
2022-11-19T00:26:31.693Z,5.23
2022-11-19T00:27:33.211Z,5.53
2022-11-19T00:28:35.072Z,6.47
2022-11-19T00:29:36.363Z,4.60
2022-11-19T00:30:53.197Z,6.13
2022-11-19T00:31:54.601Z,5.80
2022-11-19T00:32:56.170Z,8.53
2022-11-19T00:33:57.632Z,7.03
2022-11-19T00:34:58.943Z,8.30
2022-11-19T00:36:00.926Z,6.50
2022-11-19T00:37:02.207Z,7.73
2022-11-19T00:38:03.526Z,8.67
2022-11-19T00:39:05.324Z,6.53
2022-11-19T00:40:11.858Z,5.73
2022-11-19T00:41:13.254Z,9.33
2022-11-19T00:42:14.839Z,6.00
2022-11-19T00:43:34.748Z,6.47
2022-11-19T00:44:37.537Z,8.17
2022-11-19T00:45:40.655Z,8.57
2022-11-19T00:46:41.990Z,8.03
2022-11-19T00:47:43.341Z,9.70
2022-11-19T00:48:44.978Z,6.73
2022-11-19T00:49:46.356Z,8.80
2022-11-19T00:50:47.853Z,8.43
2022-11-19T00:51:49.265Z,5.63
2022-11-19T00:52:50.592Z,7.57
2022-11-19T00:53:52.054Z,8.07
2022-11-19T00:54:53.433Z,7.23
2022-11-19T00:55:54.746Z,6.27
2022-11-19T00:56:56.068Z,6.97
2022-11-19T00:57:57.537Z,6.37
2022-11-19T00:58:58.896Z,5.57
2022-11-19T01:00:00.206Z,5.57
2022-11-19T01:01:01.852Z,6.67
2022-11-19T01:02:03.195Z,7.57
2022-11-19T01:03:04.838Z,6.10
2022-11-19T01:04:06.276Z,7.57
2022-11-19T01:05:07.969Z,6.60
2022-11-19T01:06:09.886Z,8.73
2022-11-19T01:07:11.450Z,6.37
2022-11-19T01:08:12.832Z,7.90
2022-11-19T01:09:14.192Z,5.47
2022-11-19T01:10:15.811Z,6.23
2022-11-19T01:11:22.282Z,6.63
2022-11-19T01:12:23.596Z,6.70
2022-11-19T01:13:37.252Z,7.63
2022-11-19T01:14:38.753Z,6.90
2022-11-19T01:15:40.142Z,7.57
2022-11-19T01:16:41.948Z,5.53
2022-11-19T01:17:43.281Z,8.03
2022-11-19T01:18:46.605Z,6.67
2022-11-19T01:19:47.905Z,7.63
2022-11-19T01:20:49.262Z,5.73
2022-11-19T01:21:50.580Z,7.73
2022-11-19T01:22:51.870Z,7.93
2022-11-19T01:23:53.621Z,6.63
2022-11-19T01:24:55.046Z,8.37
2022-11-19T01:25:56.343Z,6.50
2022-11-19T01:26:57.873Z,6.00
2022-11-19T01:27:59.430Z,4.57
2022-11-19T01:29:00.891Z,6.53
2022-11-19T01:30:02.242Z,9.87
2022-11-19T01:31:08.336Z,5.60
2022-11-19T01:32:09.633Z,7.30
2022-11-19T01:33:11.172Z,6.57
2022-11-19T01:34:12.699Z,8.30
2022-11-19T01:35:14.107Z,5.87
2022-11-19T01:36:17.138Z,6.70
2022-11-19T01:37:18.520Z,5.97
2022-11-19T01:38:19.825Z,7.23
2022-11-19T01:39:21.531Z,7.40
2022-11-19T01:40:23.088Z,5.40
2022-11-19T01:41:25.594Z,8.17
2022-11-19T01:42:49.477Z,7.70
2022-11-19T01:43:52.025Z,6.73
2022-11-19T01:45:00.016Z,6.13
2022-11-19T01:46:01.351Z,6.73
2022-11-19T01:47:02.694Z,5.57
2022-11-19T01:48:06.745Z,7.43
2022-11-19T01:49:19.109Z,7.03
2022-11-19T01:50:21.299Z,7.90
2022-11-19T01:51:26.642Z,8.83
2022-11-19T01:52:28.039Z,7.60
2022-11-19T01:53:30.880Z,6.87
2022-11-19T01:54:41.273Z,7.10
2022-11-19T01:55:44.027Z,9.90
2022-11-19T01:56:45.672Z,7.70
2022-11-19T01:57:50.203Z,8.63
2022-11-19T01:58:54.427Z,8.63
2022-11-19T01:59:55.768Z,7.27
2022-11-19T02:00:57.539Z,7.63
2022-11-19T02:01:59.162Z,6.47
2022-11-19T02:03:00.954Z,7.73
2022-11-19T02:04:03.093Z,7.43
2022-11-19T02:05:04.747Z,7.07
2022-11-19T02:06:06.385Z,9.80
2022-11-19T02:07:09.475Z,9.77
2022-11-19T02:08:30.752Z,7.90
2022-11-19T02:09:32.643Z,8.63
2022-11-19T02:10:48.635Z,10.23
2022-11-19T02:12:08.478Z,8.23
2022-11-19T02:13:20.062Z,9.00
2022-11-19T02:14:25.090Z,7.53
2022-11-19T02:15:36.225Z,10.20
2022-11-19T02:17:02.331Z,9.33
2022-11-19T02:18:06.434Z,8.17
2022-11-19T02:19:27.385Z,9.43
2022-11-19T02:20:40.745Z,8.37
2022-11-19T02:21:56.018Z,7.77
2022-11-19T02:23:12.502Z,9.90
2022-11-19T02:24:36.226Z,8.17
2022-11-19T02:26:05.429Z,9.53
2022-11-19T02:27:24.157Z,7.90
2022-11-19T02:28:40.931Z,7.97
2022-11-19T02:29:44.842Z,9.03
2022-11-19T02:30:48.455Z,9.67
2022-11-19T02:32:08.494Z,9.50
2022-11-19T02:33:12.030Z,9.50
2022-11-19T02:34:18.082Z,9.47
2022-11-19T02:35:38.106Z,8.83
2022-11-19T02:36:52.743Z,9.50
2022-11-19T02:37:54.044Z,10.20
2022-11-19T02:39:03.875Z,9.77
2022-11-19T02:40:11.283Z,8.63
2022-11-19T02:41:36.912Z,7.73
2022-11-19T02:42:49.619Z,9.63
2022-11-19T02:44:12.696Z,9.83
2022-11-19T02:45:16.388Z,8.03
2022-11-19T02:46:17.995Z,8.73
2022-11-19T02:47:21.414Z,9.20
2022-11-19T02:48:25.131Z,8.20
2022-11-19T02:49:29.283Z,8.03
2022-11-19T02:50:36.025Z,7.17
2022-11-19T02:51:37.482Z,8.33
2022-11-19T02:52:41.774Z,9.90
2022-11-19T02:53:43.092Z,8.93
2022-11-19T02:54:44.473Z,9.80
2022-11-19T02:56:05.821Z,9.70
2022-11-19T02:57:09.555Z,9.30
2022-11-19T02:58:33.036Z,8.57
2022-11-19T02:59:58.804Z,11.60
2022-11-19T03:01:18.878Z,8.97
2022-11-19T03:02:40.342Z,9.40
2022-11-19T03:04:00.875Z,8.57
2022-11-19T03:05:03.305Z,8.43
2022-11-19T03:06:34.659Z,9.33
2022-11-19T03:07:36.052Z,9.13
2022-11-19T03:08:37.896Z,9.03
2022-11-19T03:09:44.543Z,11.77
2022-11-19T03:10:52.337Z,8.30
2022-11-19T03:11:59.414Z,8.70
2022-11-19T03:13:27.376Z,11.37
2022-11-19T03:14:56.529Z,8.77
2022-11-19T03:16:17.136Z,8.63
2022-11-19T03:17:29.487Z,11.47
2022-11-19T03:18:37.476Z,9.47
2022-11-19T03:19:38.766Z,8.30
2022-11-19T03:21:18.620Z,7.60
2022-11-19T03:22:48.966Z,10.10
2022-11-19T03:23:55.248Z,10.10
2022-11-19T03:25:00.273Z,8.70
2022-11-19T03:26:04.963Z,10.50
2022-11-19T03:27:17.749Z,10.70
2022-11-19T03:28:23.942Z,7.87
2022-11-19T03:29:26.686Z,8.50
2022-11-19T03:30:29.064Z,8.37
2022-11-19T03:31:31.495Z,9.13
2022-11-19T03:32:35.937Z,9.17
2022-11-19T03:33:43.191Z,10.23
2022-11-19T03:34:45.828Z,10.33
2022-11-19T03:35:49.619Z,8.53
2022-11-19T03:36:52.503Z,9.03
2022-11-19T03:37:55.916Z,9.33
2022-11-19T03:39:05.580Z,9.07
2022-11-19T03:40:08.328Z,10.40
2022-11-19T03:41:11.454Z,8.90
2022-11-19T03:42:14.720Z,8.90
2022-11-19T03:43:18.442Z,8.87
2022-11-19T03:44:25.820Z,8.70
2022-11-19T03:45:29.008Z,7.50
2022-11-19T03:46:31.897Z,7.53
2022-11-19T03:47:35.223Z,8.37
2022-11-19T03:48:37.839Z,10.63
2022-11-19T03:49:41.697Z,7.77
2022-11-19T03:50:46.767Z,8.07
2022-11-19T03:51:53.952Z,10.03
2022-11-19T03:52:59.938Z,8.73
2022-11-19T03:54:04.279Z,7.17
2022-11-19T03:55:05.809Z,7.73
2022-11-19T03:56:09.002Z,8.73
2022-11-19T03:57:14.966Z,10.47
2022-11-19T03:58:16.491Z,8.70
2022-11-19T03:59:18.321Z,12.60
2022-11-19T04:00:19.860Z,6.87
2022-11-19T04:01:21.544Z,7.27
2022-11-19T04:02:23.113Z,10.40
2022-11-19T04:03:24.436Z,9.17
2022-11-19T04:04:38.038Z,8.50
2022-11-19T04:05:39.461Z,9.73
2022-11-19T04:06:40.793Z,9.97
2022-11-19T04:07:42.117Z,9.50
2022-11-19T04:08:43.496Z,9.03
2022-11-19T04:09:45.195Z,9.03
2022-11-19T04:10:46.560Z,8.90
2022-11-19T04:12:48.102Z,12.00
2022-11-19T04:13:49.469Z,8.73
2022-11-19T04:14:53.832Z,10.00
2022-11-19T04:15:55.140Z,8.67
2022-11-19T04:16:56.502Z,7.60
2022-11-19T04:17:57.788Z,9.60
2022-11-19T04:18:59.143Z,10.67
2022-11-19T04:20:00.490Z,9.63
2022-11-19T04:21:01.870Z,9.33
2022-11-19T04:22:03.259Z,8.80
2022-11-19T04:23:04.643Z,7.70
2022-11-19T04:24:06.631Z,11.03
2022-11-19T04:25:08.164Z,10.20
2022-11-19T04:26:09.472Z,8.53
2022-11-19T04:27:10.856Z,9.10
2022-11-19T04:28:12.405Z,10.93
2022-11-19T04:29:14.030Z,8.33
2022-11-19T04:30:15.677Z,8.77
2022-11-19T04:31:18.143Z,8.43
2022-11-19T04:32:19.622Z,7.70
2022-11-19T04:33:21.051Z,7.87
2022-11-19T04:34:22.602Z,7.47
2022-11-19T04:35:24.182Z,10.63
2022-11-19T04:36:25.633Z,8.87
2022-11-19T04:37:27.039Z,8.43
2022-11-19T04:38:28.345Z,7.57
2022-11-19T04:39:29.763Z,9.43
2022-11-19T04:40:31.099Z,9.50
2022-11-19T04:41:32.442Z,8.87
2022-11-19T04:42:33.741Z,10.63
2022-11-19T04:43:35.041Z,12.07
2022-11-19T04:44:36.767Z,12.23
2022-11-19T04:45:38.098Z,9.90
2022-11-19T04:46:39.533Z,12.47
2022-11-19T04:47:41.034Z,9.20
2022-11-19T04:48:42.326Z,9.93
2022-11-19T04:49:43.618Z,9.67
2022-11-19T04:50:45.011Z,12.30
2022-11-19T04:51:46.472Z,9.03
2022-11-19T04:52:47.834Z,9.60
2022-11-19T04:53:49.195Z,9.70
2022-11-19T04:54:50.595Z,8.73
2022-11-19T04:55:52.161Z,10.30
2022-11-19T04:56:53.541Z,8.13
2022-11-19T04:57:55.081Z,9.73
2022-11-19T04:58:56.448Z,10.90
2022-11-19T04:59:57.776Z,8.57
2022-11-19T05:00:59.256Z,9.23
2022-11-19T05:02:00.620Z,9.30
2022-11-19T05:03:01.988Z,11.53
2022-11-19T05:04:03.379Z,11.57
2022-11-19T05:05:05.079Z,12.30
2022-11-19T05:06:06.542Z,9.93
2022-11-19T05:07:07.950Z,10.23
2022-11-19T05:08:09.374Z,9.60
2022-11-19T05:09:10.762Z,8.73
2022-11-19T05:10:12.209Z,12.10
2022-11-19T05:11:13.603Z,8.13
2022-11-19T05:12:14.964Z,9.10
2022-11-19T05:13:16.484Z,9.07
2022-11-19T05:14:17.762Z,9.93
2022-11-19T05:15:19.146Z,10.37
2022-11-19T05:16:20.509Z,10.00
2022-11-19T05:17:21.941Z,9.83
2022-11-19T05:18:23.695Z,10.40
2022-11-19T05:19:25.181Z,11.80
2022-11-19T05:20:26.620Z,12.47
2022-11-19T05:21:27.979Z,9.37
2022-11-19T05:22:29.315Z,12.37
2022-11-19T05:23:30.690Z,10.73
2022-11-19T05:24:31.971Z,11.57
2022-11-19T05:25:33.259Z,9.67
2022-11-19T05:26:34.592Z,10.60
2022-11-19T05:27:35.935Z,9.93
2022-11-19T05:28:39.631Z,12.80
2022-11-19T05:29:41.362Z,12.13
2022-11-19T05:30:42.713Z,9.33
2022-11-19T05:31:44.013Z,11.10
2022-11-19T05:32:45.359Z,11.17
2022-11-19T05:33:46.822Z,11.63
2022-11-19T05:34:48.416Z,14.50
2022-11-19T05:35:49.798Z,12.83
2022-11-19T05:36:51.210Z,10.07
2022-11-19T05:37:52.630Z,12.67
2022-11-19T05:38:53.992Z,9.80
2022-11-19T05:39:55.308Z,9.13
2022-11-19T05:40:56.753Z,12.40
2022-11-19T05:41:58.143Z,10.47
2022-11-19T05:43:03.455Z,11.37
2022-11-19T05:44:04.905Z,10.33
2022-11-19T05:45:06.606Z,11.17
2022-11-19T05:46:07.975Z,10.97
2022-11-19T05:47:09.289Z,11.20
2022-11-19T05:48:10.603Z,10.30
2022-11-19T05:49:11.979Z,11.43
2022-11-19T05:50:13.588Z,9.50
2022-11-19T05:51:15.580Z,10.90
2022-11-19T05:52:17.036Z,9.63
2022-11-19T05:53:18.383Z,9.20
2022-11-19T05:54:19.778Z,12.60
2022-11-19T05:55:21.337Z,9.17
2022-11-19T05:56:22.644Z,12.13
2022-11-19T05:57:23.963Z,10.07
2022-11-19T05:58:25.249Z,11.33
2022-11-19T05:59:26.534Z,10.93
2022-11-19T06:00:27.897Z,10.40
2022-11-19T06:01:29.823Z,11.47
2022-11-19T06:02:31.204Z,11.83
2022-11-19T06:03:32.526Z,12.10
2022-11-19T06:04:33.992Z,11.53
2022-11-19T06:05:40.037Z,10.40
2022-11-19T06:06:41.964Z,11.20
2022-11-19T06:07:43.275Z,9.53
2022-11-19T06:08:44.805Z,14.53
2022-11-19T06:09:46.170Z,10.10
2022-11-19T06:10:47.520Z,11.80
2022-11-19T06:11:50.004Z,11.77
2022-11-19T06:12:51.340Z,9.63
2022-11-19T06:13:52.656Z,9.77
2022-11-19T06:14:54.057Z,10.53
2022-11-19T06:15:55.481Z,10.93
2022-11-19T06:16:58.492Z,12.17
2022-11-19T06:17:59.813Z,12.60
2022-11-19T06:19:01.172Z,12.43
2022-11-19T06:20:02.552Z,8.73
2022-11-19T06:21:05.998Z,14.50
2022-11-19T06:22:10.735Z,11.43
2022-11-19T06:23:12.152Z,10.13
2022-11-19T06:24:13.481Z,10.13
2022-11-19T06:25:14.879Z,11.47
2022-11-19T06:26:23.251Z,12.37
2022-11-19T06:27:24.599Z,10.00
2022-11-19T06:28:26.031Z,12.50
2022-11-19T06:29:27.362Z,11.70
2022-11-19T06:30:28.674Z,10.97
2022-11-19T06:31:30.116Z,13.40
2022-11-19T06:32:31.522Z,10.40
2022-11-19T06:33:32.822Z,11.57
2022-11-19T06:34:34.103Z,10.03
2022-11-19T06:35:35.406Z,8.13
2022-11-19T06:36:41.163Z,9.50
2022-11-19T06:37:45.178Z,11.53
2022-11-19T06:38:46.551Z,12.43
2022-11-19T06:39:47.879Z,12.43
2022-11-19T06:40:49.246Z,11.00
2022-11-19T06:41:50.594Z,11.33
2022-11-19T06:42:51.965Z,9.40
2022-11-19T06:43:53.375Z,11.43
2022-11-19T06:44:54.723Z,14.47
2022-11-19T06:45:56.030Z,10.63
2022-11-19T06:46:57.345Z,12.10
2022-11-19T06:47:58.643Z,9.07
2022-11-19T06:48:59.984Z,14.33
2022-11-19T06:50:01.581Z,11.30
2022-11-19T06:51:03.333Z,13.30
2022-11-19T06:52:04.795Z,12.57
2022-11-19T06:53:06.122Z,10.30
2022-11-19T06:54:07.470Z,12.20
2022-11-19T06:55:09.029Z,10.97
2022-11-19T06:56:10.419Z,11.33
2022-11-19T06:57:11.806Z,9.80
2022-11-19T06:58:14.600Z,11.53
2022-11-19T06:59:15.977Z,8.50
2022-11-19T07:00:17.484Z,13.93
2022-11-19T07:01:18.893Z,10.87
2022-11-19T07:02:21.614Z,9.50
2022-11-19T07:03:23.753Z,10.13
2022-11-19T07:04:25.068Z,11.10
2022-11-19T07:05:26.626Z,10.20
2022-11-19T07:06:28.260Z,9.27
2022-11-19T07:07:29.636Z,11.33
2022-11-19T07:08:34.340Z,11.97
2022-11-19T07:09:35.937Z,10.27
2022-11-19T07:10:37.484Z,9.77
2022-11-19T07:11:38.893Z,11.20
2022-11-19T07:12:40.170Z,12.30
2022-11-19T07:14:00.313Z,12.03
2022-11-19T07:15:04.644Z,10.60
2022-11-19T07:16:06.156Z,10.40
2022-11-19T07:17:07.549Z,12.30
2022-11-19T07:18:08.900Z,10.43
2022-11-19T07:19:10.338Z,11.40
2022-11-19T07:20:11.736Z,11.97
2022-11-19T07:21:13.121Z,13.90
2022-11-19T07:22:14.549Z,12.53
2022-11-19T07:23:15.865Z,12.13
2022-11-19T07:24:17.855Z,11.70
2022-11-19T07:25:19.180Z,10.70
2022-11-19T07:26:20.701Z,13.97
2022-11-19T07:27:22.095Z,11.27
2022-11-19T07:28:23.389Z,13.17
2022-11-19T07:29:24.810Z,11.93
2022-11-19T07:30:26.261Z,9.27
2022-11-19T07:31:28.197Z,11.97
2022-11-19T07:32:29.505Z,11.33
2022-11-19T07:33:30.919Z,10.33
2022-11-19T07:34:32.252Z,11.10
2022-11-19T07:35:33.622Z,12.00
2022-11-19T07:36:35.704Z,13.40
2022-11-19T07:37:37.056Z,11.13
2022-11-19T07:38:38.732Z,10.90
2022-11-19T07:39:40.108Z,14.43
2022-11-19T07:40:41.520Z,11.80
2022-11-19T07:42:01.582Z,11.97
2022-11-19T07:43:02.881Z,12.27
2022-11-19T07:44:08.789Z,14.60
2022-11-19T07:45:10.367Z,12.40
2022-11-19T07:46:11.662Z,12.70
2022-11-19T07:47:13.111Z,10.67
2022-11-19T07:48:14.957Z,10.30
2022-11-19T07:49:16.499Z,12.47
2022-11-19T07:50:18.059Z,12.33
2022-11-19T07:51:19.344Z,10.57
2022-11-19T07:52:21.492Z,9.43
2022-11-19T07:53:22.939Z,12.00
2022-11-19T07:54:24.294Z,11.03
2022-11-19T07:55:25.615Z,12.83
2022-11-19T07:56:26.988Z,10.57
2022-11-19T07:57:30.393Z,11.90
2022-11-19T07:58:32.348Z,11.87
2022-11-19T07:59:33.663Z,11.10
2022-11-19T08:00:35.316Z,11.27
2022-11-19T08:01:37.052Z,10.90
2022-11-19T08:02:38.503Z,10.70
2022-11-19T08:03:42.511Z,10.20
2022-11-19T08:04:43.919Z,8.60
2022-11-19T08:05:45.405Z,13.37
2022-11-19T08:06:47.371Z,11.00
2022-11-19T08:07:48.703Z,11.67
2022-11-19T08:08:50.043Z,13.00
2022-11-19T08:09:51.333Z,7.97
2022-11-19T08:10:52.638Z,13.17
2022-11-19T08:11:54.019Z,11.23
2022-11-19T08:13:03.196Z,10.03
2022-11-19T08:14:04.675Z,10.87
2022-11-19T08:15:06.371Z,12.13
2022-11-19T08:16:09.738Z,10.17
2022-11-19T08:17:29.687Z,11.93
2022-11-19T08:18:31.619Z,8.77
2022-11-19T08:19:33.018Z,10.37
2022-11-19T08:20:34.332Z,10.77
2022-11-19T08:21:36.292Z,9.00
2022-11-19T08:22:38.654Z,10.10
2022-11-19T08:23:40.142Z,11.53
2022-11-19T08:24:41.493Z,10.97
2022-11-19T08:25:44.224Z,9.10
2022-11-19T08:26:45.750Z,11.00
2022-11-19T08:27:47.070Z,9.87
2022-11-19T08:28:48.443Z,9.27
2022-11-19T08:29:50.457Z,9.80
2022-11-19T08:30:51.871Z,12.23
2022-11-19T08:31:53.292Z,10.90
2022-11-19T08:32:55.077Z,10.23
2022-11-19T08:33:56.487Z,9.43
2022-11-19T08:34:57.976Z,10.50
2022-11-19T08:35:59.372Z,8.40
2022-11-19T08:37:00.787Z,10.87
2022-11-19T08:38:02.305Z,12.30
2022-11-19T08:39:04.136Z,8.00
2022-11-19T08:40:05.831Z,8.67
2022-11-19T08:41:25.846Z,8.40
2022-11-19T08:42:46.022Z,6.67
2022-11-19T08:43:47.518Z,13.03
2022-11-19T08:44:55.827Z,8.13
2022-11-19T08:45:57.247Z,11.47
2022-11-19T08:46:58.610Z,6.90
2022-11-19T08:48:01.145Z,8.10
2022-11-19T08:49:02.602Z,9.30
2022-11-19T08:50:04.165Z,6.83
2022-11-19T08:51:06.504Z,7.13
2022-11-19T08:52:07.946Z,7.17
2022-11-19T08:53:10.469Z,8.50
2022-11-19T08:54:13.443Z,9.87
2022-11-19T08:55:20.426Z,8.90
2022-11-19T08:56:21.883Z,7.10
2022-11-19T08:57:23.487Z,7.90
2022-11-19T08:58:24.970Z,10.40
2022-11-19T08:59:26.287Z,8.30
2022-11-19T09:00:27.750Z,8.83
2022-11-19T09:01:29.280Z,6.90
2022-11-19T09:02:30.652Z,6.90
2022-11-19T09:03:32.024Z,8.17
2022-11-19T09:04:33.451Z,9.70
2022-11-19T09:05:34.889Z,7.30
2022-11-19T09:06:36.300Z,8.67
2022-11-19T09:07:37.737Z,7.17
2022-11-19T09:08:39.310Z,8.00
2022-11-19T09:09:40.634Z,10.73
2022-11-19T09:10:42.053Z,9.53
2022-11-19T09:11:43.479Z,10.83
2022-11-19T09:12:45.031Z,8.47
2022-11-19T09:13:46.720Z,7.97
2022-11-19T09:14:48.143Z,10.03
2022-11-19T09:15:50.181Z,8.33
2022-11-19T09:16:51.542Z,8.33
2022-11-19T09:17:52.912Z,7.57
2022-11-19T09:18:54.322Z,7.87
2022-11-19T09:19:55.784Z,6.97
2022-11-19T09:20:57.350Z,10.33
2022-11-19T09:21:58.781Z,7.73
2022-11-19T09:23:00.088Z,7.53
2022-11-19T09:24:01.461Z,6.83
2022-11-19T09:25:02.879Z,7.43
2022-11-19T09:26:06.052Z,7.80
2022-11-19T09:27:07.401Z,8.33
2022-11-19T09:28:08.844Z,7.17
2022-11-19T09:29:10.254Z,8.07
2022-11-19T09:30:11.862Z,7.40
2022-11-19T09:31:14.854Z,9.40
2022-11-19T09:32:18.878Z,7.27
2022-11-19T09:33:24.438Z,9.23
2022-11-19T09:34:25.792Z,12.17
2022-11-19T09:35:27.110Z,11.70
2022-11-19T09:36:28.479Z,14.93
2022-11-19T09:37:33.923Z,15.70
2022-11-19T09:38:35.933Z,15.77
2022-11-19T09:39:37.357Z,15.67
2022-11-19T09:40:38.722Z,15.40
2022-11-19T09:41:56.420Z,15.83
2022-11-19T09:42:57.829Z,17.53
2022-11-19T09:44:18.125Z,15.10
2022-11-19T09:45:27.299Z,16.93
2022-11-19T09:46:34.627Z,17.33
2022-11-19T09:47:42.014Z,20.40
2022-11-19T09:48:45.696Z,18.60
2022-11-19T09:50:02.102Z,24.37
2022-11-19T09:51:07.586Z,18.60
2022-11-19T09:52:20.229Z,19.83
2022-11-19T09:53:22.788Z,21.13
2022-11-19T09:54:24.457Z,23.27
2022-11-19T09:55:31.174Z,20.67
2022-11-19T09:56:40.087Z,18.97
2022-11-19T09:57:47.632Z,23.00
2022-11-19T09:58:49.188Z,18.87
2022-11-19T09:59:51.912Z,17.60
2022-11-19T10:00:53.466Z,18.53
2022-11-19T10:01:55.251Z,18.03
2022-11-19T10:02:57.728Z,21.33
2022-11-19T10:04:00.263Z,21.00
2022-11-19T10:05:01.645Z,17.13
2022-11-19T10:06:19.551Z,16.07
2022-11-19T10:07:39.449Z,16.47
2022-11-19T10:08:53.055Z,17.80
2022-11-19T10:10:06.556Z,17.47
2022-11-19T10:11:29.776Z,16.87
2022-11-19T10:12:48.191Z,15.77
2022-11-19T10:14:01.620Z,17.43
2022-11-19T10:15:22.814Z,15.73
2022-11-19T10:16:26.902Z,15.93
2022-11-19T10:17:34.319Z,16.90
2022-11-19T10:18:40.869Z,15.17
2022-11-19T10:20:00.406Z,15.33
2022-11-19T10:21:04.733Z,15.07
2022-11-19T10:22:20.670Z,16.47
2022-11-19T10:23:38.074Z,13.63
2022-11-19T10:24:43.683Z,14.23
2022-11-19T10:25:47.232Z,15.47
2022-11-19T10:26:53.077Z,15.00
2022-11-19T10:27:57.630Z,15.47
2022-11-19T10:28:58.996Z,15.47
2022-11-19T10:30:02.594Z,15.90
2022-11-19T10:31:08.740Z,16.13
2022-11-19T10:32:21.271Z,15.23
2022-11-19T10:33:37.196Z,14.37
2022-11-19T10:34:39.053Z,13.73
2022-11-19T10:35:55.513Z,14.93
2022-11-19T10:37:09.379Z,14.63
2022-11-19T10:38:21.124Z,14.40
2022-11-19T10:39:25.063Z,14.37
2022-11-19T10:40:30.109Z,15.60
2022-11-19T10:41:35.038Z,14.20
2022-11-19T10:42:42.165Z,13.20
2022-11-19T10:43:46.252Z,13.07
2022-11-19T10:44:53.707Z,12.10
2022-11-19T10:45:56.403Z,12.07
2022-11-19T10:46:58.204Z,12.47
2022-11-19T10:48:20.072Z,11.03
2022-11-19T10:49:21.528Z,14.53
2022-11-19T10:50:24.282Z,14.90
2022-11-19T10:51:30.791Z,13.87
2022-11-19T10:52:40.038Z,15.73
2022-11-19T10:53:42.490Z,15.23
2022-11-19T10:54:44.773Z,15.37
2022-11-19T10:55:54.504Z,16.20
2022-11-19T10:56:56.732Z,15.20
2022-11-19T10:58:21.408Z,14.00
2022-11-19T10:59:24.376Z,15.93
2022-11-19T11:00:25.734Z,15.43
2022-11-19T11:01:27.109Z,14.77
2022-11-19T11:02:49.623Z,13.93
2022-11-19T11:04:06.145Z,15.83
2022-11-19T11:05:12.881Z,15.77
2022-11-19T11:06:14.288Z,19.20
2022-11-19T11:07:15.597Z,15.63
2022-11-19T11:08:19.999Z,16.60
2022-11-19T11:09:33.791Z,16.50
2022-11-19T11:10:35.153Z,18.53
2022-11-19T11:12:05.725Z,14.43
2022-11-19T11:13:44.157Z,14.17
2022-11-19T11:14:52.866Z,13.10
2022-11-19T11:15:54.794Z,11.17
2022-11-19T11:16:56.760Z,12.40
2022-11-19T11:18:01.597Z,12.43
2022-11-19T11:19:02.978Z,10.77
2022-11-19T11:20:17.036Z,11.97
2022-11-19T11:21:21.532Z,9.97
2022-11-19T11:22:23.327Z,11.93
2022-11-19T11:23:25.974Z,10.10
2022-11-19T11:24:32.110Z,12.30
2022-11-19T11:25:35.600Z,9.40
2022-11-19T11:26:38.693Z,9.63
2022-11-19T11:27:40.073Z,9.63
2022-11-19T11:29:00.474Z,9.43
2022-11-19T11:30:20.016Z,9.70
2022-11-19T11:31:35.218Z,11.10
2022-11-19T11:32:36.677Z,8.67
2022-11-19T11:33:57.260Z,8.97
2022-11-19T11:35:02.344Z,8.87
2022-11-19T11:36:19.597Z,8.83
2022-11-19T11:37:21.193Z,9.73
2022-11-19T11:38:23.936Z,9.83
2022-11-19T11:39:28.083Z,8.93
2022-11-19T11:40:31.024Z,8.80
2022-11-19T11:43:01.133Z,9.37
2022-11-19T11:44:05.737Z,8.63
2022-11-19T11:45:08.813Z,8.93
2022-11-19T11:46:12.227Z,9.10
2022-11-19T11:47:16.392Z,8.80
2022-11-19T11:48:19.699Z,7.80
2022-11-19T11:49:26.936Z,7.50
2022-11-19T11:50:28.773Z,10.20
2022-11-19T11:51:34.800Z,8.87
2022-11-19T11:52:47.244Z,9.70
2022-11-19T11:54:02.674Z,8.77
2022-11-19T11:55:06.350Z,9.37
2022-11-19T11:56:08.808Z,9.13
2022-11-19T11:57:16.194Z,8.57
2022-11-19T11:58:25.167Z,8.27
2022-11-19T11:59:27.953Z,9.40
2022-11-19T12:00:32.547Z,10.17
2022-11-19T12:01:33.897Z,9.60
2022-11-19T12:02:35.540Z,10.47
2022-11-19T12:03:55.230Z,14.90
2022-11-19T12:04:58.845Z,11.80
2022-11-19T12:06:11.031Z,10.40
2022-11-19T12:07:31.268Z,11.13
2022-11-19T12:08:35.687Z,11.20
2022-11-19T12:09:46.192Z,11.13
2022-11-19T12:10:59.928Z,15.53
2022-11-19T12:12:07.364Z,16.77
2022-11-19T12:13:16.921Z,15.73
2022-11-19T12:14:22.071Z,18.53
2022-11-19T12:15:29.334Z,21.90
2022-11-19T12:16:30.739Z,25.67
2022-11-19T12:17:50.865Z,31.47
2022-11-19T12:19:00.910Z,28.73
2022-11-19T12:20:02.512Z,26.03
2022-11-19T12:21:11.649Z,26.30
2022-11-19T12:22:32.136Z,27.57
2022-11-19T12:23:52.303Z,27.50
2022-11-19T12:24:56.700Z,27.47
2022-11-19T12:26:01.050Z,26.10
2022-11-19T12:27:02.347Z,25.00
2022-11-19T12:28:22.638Z,27.57
2022-11-19T12:29:42.672Z,28.00
2022-11-19T12:30:59.240Z,25.90
2022-11-19T12:32:20.063Z,27.30
2022-11-19T12:33:41.693Z,27.07
2022-11-19T12:35:01.474Z,28.77
2022-11-19T12:36:02.780Z,27.20
2022-11-19T12:37:22.922Z,25.53
2022-11-19T12:38:27.795Z,25.40
2022-11-19T12:39:45.180Z,23.33
2022-11-19T12:40:58.832Z,24.43
2022-11-19T12:42:05.327Z,22.47
2022-11-19T12:43:06.610Z,20.03
2022-11-19T12:44:27.352Z,19.03
2022-11-19T12:45:36.459Z,21.57
2022-11-19T12:46:46.269Z,19.07
2022-11-19T12:47:53.752Z,17.37
2022-11-19T12:48:55.273Z,17.20
2022-11-19T12:50:32.729Z,19.07
2022-11-19T12:51:52.406Z,15.93
2022-11-19T12:52:56.436Z,16.20
2022-11-19T12:53:57.715Z,14.80
2022-11-19T12:54:59.062Z,14.23
2022-11-19T12:56:19.127Z,13.30
2022-11-19T12:57:20.453Z,12.67
2022-11-19T12:58:37.957Z,13.07
2022-11-19T13:00:19.137Z,13.63
2022-11-19T13:01:23.497Z,13.13
2022-11-19T13:02:51.428Z,11.80
2022-11-19T13:04:11.539Z,12.73
2022-11-19T13:05:12.842Z,14.20
2022-11-19T13:06:18.131Z,12.93
2022-11-19T13:07:23.131Z,13.00
2022-11-19T13:08:27.513Z,12.10
2022-11-19T13:09:38.402Z,12.63
2022-11-19T13:10:41.864Z,12.30
2022-11-19T13:11:45.338Z,14.40
2022-11-19T13:12:50.043Z,13.90
2022-11-19T13:13:55.010Z,13.50
2022-11-19T13:14:59.495Z,15.43
2022-11-19T13:16:05.198Z,18.33
2022-11-19T13:17:15.100Z,18.90
2022-11-19T13:18:17.637Z,17.47
2022-11-19T13:19:24.878Z,15.03
2022-11-19T13:20:36.850Z,13.37
2022-11-19T13:21:47.780Z,9.87
2022-11-19T13:22:51.870Z,8.53
2022-11-19T13:23:53.999Z,7.40
2022-11-19T13:25:04.813Z,8.60
2022-11-19T13:26:09.378Z,7.83
2022-11-19T13:27:16.525Z,8.70
2022-11-19T13:28:36.359Z,7.70
2022-11-19T13:29:52.873Z,6.37
2022-11-19T13:30:58.069Z,6.53
2022-11-19T13:32:05.383Z,7.37
2022-11-19T13:33:12.651Z,7.53
2022-11-19T13:34:25.762Z,5.50
2022-11-19T13:35:33.011Z,7.50
2022-11-19T13:36:41.605Z,5.20
2022-11-19T13:37:58.062Z,6.10
2022-11-19T13:39:10.244Z,5.97
2022-11-19T13:40:20.840Z,5.80
2022-11-19T13:41:26.012Z,5.87
2022-11-19T13:43:04.073Z,5.40
2022-11-19T13:44:28.491Z,7.43
2022-11-19T13:45:30.090Z,6.87
2022-11-19T13:46:39.978Z,10.97
2022-11-19T13:47:45.423Z,9.50
2022-11-19T13:48:49.693Z,10.33
2022-11-19T13:49:53.440Z,9.23
2022-11-19T13:50:57.311Z,8.43
2022-11-19T13:52:07.397Z,8.30
2022-11-19T13:53:15.015Z,8.47
2022-11-19T13:54:36.474Z,7.70
2022-11-19T13:55:40.279Z,9.33
2022-11-19T13:56:46.674Z,10.77
2022-11-19T13:57:48.310Z,9.50
2022-11-19T13:58:51.362Z,8.80
2022-11-19T13:59:58.846Z,8.57
2022-11-19T14:01:09.962Z,7.17
2022-11-19T14:02:29.538Z,7.43
2022-11-19T14:03:53.746Z,7.43
2022-11-19T14:05:05.765Z,6.13
2022-11-19T14:06:25.560Z,5.97
2022-11-19T14:07:33.692Z,6.67
2022-11-19T14:08:48.203Z,6.37
2022-11-19T14:09:49.620Z,6.50
2022-11-19T14:10:57.144Z,6.20
2022-11-19T14:12:20.702Z,6.30
2022-11-19T14:13:42.493Z,6.83
2022-11-19T14:15:27.226Z,6.73
2022-11-19T14:17:00.317Z,6.63
2022-11-19T14:18:39.252Z,7.77
2022-11-19T14:20:09.485Z,17.03